Time;durP1;ratioP1;P1;durP2;ratioP2;P2;SDS_P1;SDS_P2;PMS_P1;PMS_P2;Temp;Humidity;BMP_temperature;BMP_pressure;BME280_temperature;BME280_humidity;BME280_pressure;Samples;Min_cycle;Max_cycle;Signal;HPM_P1;HPM_P2
2023/04/06 00:00:08;;;;;;;;;;;7.30;90.80;7.40;99844.00;;;;338932;28;91051;-87
2023/04/06 00:00:21;;;;;;;;;;;7.30;90.80;7.60;99843.00;;;;337903;28;93779;-87
2023/04/06 00:00:32;;;;;;;;;;;7.30;90.80;7.60;99844.00;;;;337584;28;91823;-87
2023/04/06 00:00:44;;;;;;;;;;;7.30;90.80;7.60;99844.00;;;;336397;28;95549;-87
2023/04/06 00:00:56;;;;;;;;;;;7.30;90.90;7.60;99840.00;;;;338727;28;92107;-87
2023/04/06 00:01:08;;;;;;;;;;;7.20;90.80;7.60;99837.00;;;;341724;28;95586;-87
2023/04/06 00:01:20;;;;;;;;;;;7.20;91.10;7.60;99839.00;;;;337551;28;91382;-87
2023/04/06 00:01:32;;;;;;;;;;;7.20;90.80;7.60;99843.00;;;;339200;28;93777;-87
2023/04/06 00:01:44;;;;;;;;;;;7.20;90.70;7.60;99844.00;;;;338925;28;91955;-87
2023/04/06 00:01:56;;;;;;;;;;;7.20;90.70;7.60;99843.00;;;;336389;28;93222;-87
2023/04/06 00:02:08;;;;;;;;;;;7.20;90.70;7.60;99841.00;;;;338759;28;91940;-87
2023/04/06 00:02:20;;;;;;;;;;;7.20;90.90;7.60;99841.00;;;;339006;28;92780;-87
2023/04/06 00:02:31;;;;;;;;;;;7.20;90.90;7.60;99846.00;;;;336226;28;92077;-87
2023/04/06 00:02:43;;;;;;;;;;;7.20;90.80;7.60;99846.00;;;;339008;28;96202;-87
2023/04/06 00:02:56;;;;;;;;;;;7.20;90.70;7.60;99839.00;;;;338828;28;91844;-87
2023/04/06 00:03:08;;;;;;;;;;;7.20;90.60;7.60;99842.00;;;;339174;28;93465;-87
2023/04/06 00:03:20;;;;;;;;;;;7.10;90.50;7.70;99843.00;;;;338829;28;91434;-87
2023/04/06 00:03:32;;;;;;;;;;;7.10;90.30;7.80;99837.00;;;;340500;28;92552;-87
2023/04/06 00:03:43;;;;;;;;;;;7.20;90.30;7.90;99835.00;;;;338832;28;91017;-87
2023/04/06 00:03:56;;;;;;;;;;;7.20;90.30;7.80;99841.00;;;;338943;28;95113;-87
2023/04/06 00:04:07;;;;;;;;;;;7.20;90.50;7.70;99843.00;;;;340925;28;92086;-87
2023/04/06 00:04:19;;;;;;;;;;;7.20;90.60;7.70;99840.00;;;;337781;28;95452;-87
2023/04/06 00:04:31;;;;;;;;;;;7.20;90.40;7.70;99828.00;;;;336169;28;92002;-87
2023/04/06 00:04:43;;;;;;;;;;;7.20;90.40;7.60;99844.00;;;;337726;28;96737;-87
2023/04/06 00:04:55;;;;;;;;;;;7.20;90.60;7.70;99842.00;;;;337601;28;90906;-87
2023/04/06 00:05:07;;;;;;;;;;;7.20;90.50;7.70;99829.00;;;;337719;28;92263;-87
2023/04/06 00:05:20;;;;;;;;;;;7.20;90.70;7.80;99845.00;;;;334849;29;91155;-87
2023/04/06 00:05:31;;;;;;;;;;;7.10;90.60;7.90;99834.00;;;;335225;29;95126;-87
2023/04/06 00:05:43;;;;;;;;;;;7.10;90.50;7.90;99834.00;;;;334923;29;92013;-87
2023/04/06 00:05:55;;;;;;;;;;;7.10;90.60;7.80;99845.00;;;;336384;28;93660;-86
2023/04/06 00:06:07;;;;;;;;;;;7.20;90.70;7.70;99834.00;;;;337565;28;91965;-87
2023/04/06 00:06:19;;;;;;;;;;;7.20;90.90;7.60;99843.00;;;;337863;28;92502;-86
2023/04/06 00:06:32;;;;;;;;;;;7.10;90.90;7.60;99835.00;;;;334881;29;91999;-87
2023/04/06 00:06:44;;;;;;;;;;;7.10;91.10;7.70;99841.00;;;;335192;29;94618;-87
2023/04/06 00:06:56;;;;;;;;;;;7.10;90.90;7.60;99833.00;;;;336175;28;91979;-88
2023/04/06 00:07:08;;;;;;;;;;;7.10;90.80;7.50;99841.00;;;;337748;28;94929;-86
2023/04/06 00:07:20;;;;;;;;;;;7.10;91.10;7.50;99841.00;;;;336108;28;92019;-87
2023/04/06 00:07:33;;;;;;;;;;;7.10;91.00;7.60;99832.00;;;;337786;28;94422;-87
2023/04/06 00:07:45;;;;;;;;;;;7.10;90.90;7.70;99847.00;;;;337518;28;91837;-87
2023/04/06 00:08:00;;;;;;;;;;;7.10;90.70;7.70;99835.00;;;;336452;28;92410;-87
2023/04/06 00:08:12;;;;;;;;;;;7.10;90.70;7.70;99835.00;;;;338848;28;91995;-86
2023/04/06 00:08:23;;;;;;;;;;;7.10;90.70;7.70;99840.00;;;;339079;28;93629;-86
2023/04/06 00:08:35;;;;;;;;;;;7.10;90.50;7.70;99838.00;;;;337428;28;92088;-87
2023/04/06 00:08:47;;;;;;;;;;;7.10;90.40;7.60;99837.00;;;;335194;29;93547;-87
2023/04/06 00:08:59;;;;;;;;;;;7.10;90.50;7.60;99839.00;;;;337175;28;93058;-87
2023/04/06 00:09:11;;;;;;;;;;;7.10;90.80;7.60;99838.00;;;;339164;28;93507;-87
2023/04/06 00:09:22;;;;;;;;;;;7.10;90.80;7.60;99840.00;;;;334897;29;91296;-86
2023/04/06 00:09:34;;;;;;;;;;;7.10;90.80;7.60;99840.00;;;;335208;29;96238;-87
2023/04/06 00:09:46;;;;;;;;;;;7.10;90.80;7.60;99845.00;;;;334967;29;91892;-87
2023/04/06 00:09:58;;;;;;;;;;;7.10;90.80;7.50;99842.00;;;;339020;28;93999;-86
2023/04/06 00:10:09;;;;;;;;;;;7.10;90.90;7.50;99839.00;;;;336258;28;91862;-87
2023/04/06 00:10:21;;;;;;;;;;;7.10;91.00;7.60;99841.00;;;;335216;29;92105;-87
2023/04/06 00:10:33;;;;;;;;;;;7.10;90.80;7.60;99840.00;;;;336135;28;91996;-87
2023/04/06 00:10:45;;;;;;;;;;;7.10;90.80;7.50;99840.00;;;;335222;29;93085;-87
2023/04/06 00:10:57;;;;;;;;;;;7.10;90.80;7.60;99836.00;;;;334894;29;92015;-87
2023/04/06 00:11:08;;;;;;;;;;;7.10;90.90;7.60;99844.00;;;;336405;28;95057;-87
2023/04/06 00:11:20;;;;;;;;;;;7.10;90.80;7.60;99834.00;;;;337568;28;91166;-87
2023/04/06 00:11:32;;;;;;;;;;;7.10;90.70;7.60;99842.00;;;;337762;28;94516;-87
2023/04/06 00:11:44;;;;;;;;;;;7.10;90.60;7.70;99846.00;;;;336228;28;91960;-87
2023/04/06 00:11:56;;;;;;;;;;;7.10;90.50;7.70;99846.00;;;;336459;28;93596;-87
2023/04/06 00:12:08;;;;;;;;;;;7.10;90.50;7.70;99843.00;;;;337486;28;92056;-87
2023/04/06 00:12:20;;;;;;;;;;;7.10;90.60;7.80;99842.00;;;;335124;29;96036;-87
2023/04/06 00:12:32;;;;;;;;;;;7.10;90.70;7.70;99841.00;;;;336168;28;91972;-87
2023/04/06 00:12:43;;;;;;;;;;;7.10;90.60;7.80;99842.00;;;;335127;28;93814;-87
2023/04/06 00:12:57;;;;;;;;;;;7.10;90.60;7.80;99844.00;;;;334636;29;92074;-87
2023/04/06 00:13:08;;;;;;;;;;;7.10;90.70;7.70;99843.00;;;;335137;29;95935;-87
2023/04/06 00:13:20;;;;;;;;;;;7.10;90.80;7.70;99842.00;;;;336197;28;91367;-87
2023/04/06 00:13:32;;;;;;;;;;;7.10;91.00;7.70;99847.00;;;;336513;28;92793;-87
2023/04/06 00:13:44;;;;;;;;;;;7.10;90.80;7.70;99848.00;;;;334915;29;91974;-87
2023/04/06 00:13:56;;;;;;;;;;;7.10;90.60;7.70;99845.00;;;;335128;29;93193;-87
2023/04/06 00:14:08;;;;;;;;;;;7.10;90.50;7.70;99839.00;;;;336234;28;92147;-87
2023/04/06 00:14:20;;;;;;;;;;;7.10;90.40;7.70;99832.00;;;;337780;28;95955;-87
2023/04/06 00:14:32;;;;;;;;;;;7.10;90.40;7.80;99842.00;;;;337576;28;91872;-87
2023/04/06 00:14:44;;;;;;;;;;;7.10;90.50;7.70;99826.00;;;;335136;29;93543;-87
2023/04/06 00:14:55;;;;;;;;;;;7.10;90.60;7.70;99840.00;;;;333699;29;91860;-87
2023/04/06 00:15:08;;;;;;;;;;;7.10;90.90;7.70;99840.00;;;;336222;28;96609;-86
2023/04/06 00:15:20;;;;;;;;;;;7.10;90.60;7.70;99831.00;;;;332116;29;91367;-87
2023/04/06 00:15:32;;;;;;;;;;;7.10;90.60;7.70;99833.00;;;;333911;29;92731;-87
2023/04/06 00:15:44;;;;;;;;;;;7.10;90.60;7.70;99837.00;;;;336294;28;91982;-87
2023/04/06 00:15:56;;;;;;;;;;;7.10;90.50;7.70;99837.00;;;;333865;29;93821;-87
2023/04/06 00:16:07;;;;;;;;;;;7.10;90.50;7.70;99844.00;;;;336130;28;92139;-87
2023/04/06 00:16:19;;;;;;;;;;;7.10;90.40;7.70;99836.00;;;;337730;28;95829;-87
2023/04/06 00:16:33;;;;;;;;;;;7.10;90.70;7.60;99835.00;;;;335023;29;91678;-87
2023/04/06 00:16:45;;;;;;;;;;;7.10;91.00;7.60;99834.00;;;;335178;29;94035;-87
2023/04/06 00:16:57;;;;;;;;;;;7.10;91.10;7.60;99838.00;;;;334862;29;91988;-87
2023/04/06 00:17:09;;;;;;;;;;;7.10;91.30;7.50;99835.00;;;;337701;28;96390;-87
2023/04/06 00:17:21;;;;;;;;;;;7.00;91.40;7.60;99837.00;;;;336242;28;91271;-87
2023/04/06 00:17:32;;;;;;;;;;;7.00;91.20;7.60;99833.00;;;;333883;29;95825;-86
2023/04/06 00:17:44;;;;;;;;;;;7.10;91.00;7.60;99833.00;;;;333580;29;91987;-87
2023/04/06 00:17:56;;;;;;;;;;;7.00;90.80;7.60;99836.00;;;;336342;28;94106;-87
2023/04/06 00:18:08;;;;;;;;;;;7.10;90.90;7.50;99837.00;;;;337523;28;91989;-87
2023/04/06 00:18:20;;;;;;;;;;;7.00;91.20;7.60;99830.00;;;;335035;29;96025;-86
2023/04/06 00:18:32;;;;;;;;;;;7.00;91.10;7.60;99844.00;;;;336307;28;91118;-87
2023/04/06 00:18:44;;;;;;;;;;;7.00;91.00;7.60;99828.00;;;;337725;28;95241;-86
2023/04/06 00:18:55;;;;;;;;;;;7.00;91.00;7.60;99830.00;;;;332369;29;91776;-87
2023/04/06 00:19:07;;;;;;;;;;;7.00;91.10;7.60;99836.00;;;;336268;28;95586;-86
2023/04/06 00:19:19;;;;;;;;;;;7.00;91.20;7.50;99835.00;;;;337350;28;90488;-87
2023/04/06 00:19:31;;;;;;;;;;;7.00;91.50;7.50;99841.00;;;;336507;28;93076;-87
2023/04/06 00:19:43;;;;;;;;;;;7.00;91.60;7.40;99844.00;;;;337483;28;91929;-87
2023/04/06 00:19:55;;;;;;;;;;;7.00;91.60;7.40;99837.00;;;;337767;28;96507;-86
2023/04/06 00:20:07;;;;;;;;;;;7.00;91.90;7.40;99839.00;;;;333505;29;92086;-87
2023/04/06 00:20:19;;;;;;;;;;;7.00;91.60;7.40;99839.00;;;;336499;28;93069;-86
2023/04/06 00:20:31;;;;;;;;;;;7.00;91.50;7.40;99835.00;;;;336250;28;91931;-87
2023/04/06 00:20:43;;;;;;;;;;;7.00;91.50;7.40;99836.00;;;;336471;28;93466;-86
2023/04/06 00:20:55;;;;;;;;;;;7.00;91.50;7.40;99841.00;;;;333694;29;92015;-86
2023/04/06 00:21:07;;;;;;;;;;;7.00;91.50;7.40;99835.00;;;;335128;29;93532;-86
2023/04/06 00:21:18;;;;;;;;;;;7.00;91.60;7.40;99843.00;;;;337558;28;91301;-87
2023/04/06 00:21:31;;;;;;;;;;;7.00;91.60;7.40;99839.00;;;;336465;28;95162;-86
2023/04/06 00:21:42;;;;;;;;;;;7.00;91.60;7.30;99833.00;;;;333604;29;91855;-87
2023/04/06 00:21:54;;;;;;;;;;;7.00;91.50;7.30;99837.00;;;;335010;29;96356;-87
2023/04/06 00:22:06;;;;;;;;;;;6.90;91.60;7.40;99833.00;;;;334652;29;92068;-87
2023/04/06 00:22:18;;;;;;;;;;;6.90;91.70;7.30;99840.00;;;;336262;28;95729;-87
2023/04/06 00:22:30;;;;;;;;;;;6.90;91.80;7.30;99846.00;;;;332398;29;91889;-87
2023/04/06 00:22:42;;;;;;;;;;;6.90;91.80;7.30;99831.00;;;;336404;28;95922;-87
2023/04/06 00:22:54;;;;;;;;;;;6.90;91.80;7.20;99838.00;;;;336295;28;91915;-87
2023/04/06 00:23:06;;;;;;;;;;;6.90;91.80;7.20;99831.00;;;;336450;28;96942;-87
2023/04/06 00:23:17;;;;;;;;;;;6.90;91.90;7.30;99845.00;;;;337583;28;91247;-86
2023/04/06 00:23:29;;;;;;;;;;;6.90;91.80;7.30;99840.00;;;;337723;28;94916;-86
2023/04/06 00:23:41;;;;;;;;;;;6.90;91.50;7.30;99840.00;;;;336309;28;91849;-86
2023/04/06 00:23:53;;;;;;;;;;;6.90;91.50;7.30;99833.00;;;;336392;28;95629;-87
2023/04/06 00:24:05;;;;;;;;;;;6.90;91.60;7.30;99844.00;;;;337435;28;91308;-86
2023/04/06 00:24:17;;;;;;;;;;;6.90;91.50;7.40;99837.00;;;;337823;28;93173;-87
2023/04/06 00:24:29;;;;;;;;;;;6.90;91.30;7.40;99833.00;;;;337433;28;92106;-87
2023/04/06 00:24:40;;;;;;;;;;;6.90;91.30;7.40;99838.00;;;;335204;29;93617;-87
2023/04/06 00:24:52;;;;;;;;;;;6.90;91.30;7.40;99830.00;;;;337603;28;91827;-87
2023/04/06 00:25:05;;;;;;;;;;;6.90;91.20;7.40;99843.00;;;;337662;28;94737;-87
2023/04/06 00:25:17;;;;;;;;;;;6.90;91.30;7.40;99839.00;;;;334621;29;91384;-86
2023/04/06 00:25:28;;;;;;;;;;;6.90;91.10;7.40;99833.00;;;;335063;29;92788;-86
2023/04/06 00:25:40;;;;;;;;;;;6.90;91.10;7.50;99831.00;;;;337502;28;92016;-87
2023/04/06 00:25:52;;;;;;;;;;;6.90;91.10;7.60;99831.00;;;;339056;28;95728;-87
2023/04/06 00:26:04;;;;;;;;;;;6.90;91.10;7.50;99832.00;;;;336142;28;92010;-86
2023/04/06 00:26:16;;;;;;;;;;;6.90;91.10;7.40;99836.00;;;;336423;28;94920;-86
2023/04/06 00:26:27;;;;;;;;;;;6.90;91.30;7.40;99842.00;;;;338803;28;92278;-86
2023/04/06 00:26:39;;;;;;;;;;;6.90;91.50;7.30;99842.00;;;;337686;28;93424;-86
2023/04/06 00:26:51;;;;;;;;;;;6.90;91.60;7.30;99834.00;;;;337597;28;91864;-87
2023/04/06 00:27:03;;;;;;;;;;;6.90;91.70;7.30;99849.00;;;;339108;28;94126;-86
2023/04/06 00:27:15;;;;;;;;;;;6.90;91.70;7.30;99836.00;;;;336233;28;91227;-87
2023/04/06 00:27:26;;;;;;;;;;;6.90;91.80;7.30;99837.00;;;;333877;29;92953;-87
2023/04/06 00:27:38;;;;;;;;;;;6.90;91.90;7.30;99833.00;;;;336271;28;91902;-87
2023/04/06 00:27:50;;;;;;;;;;;6.80;92.00;7.20;99832.00;;;;337758;28;93905;-87
2023/04/06 00:28:03;;;;;;;;;;;6.80;92.10;7.20;99833.00;;;;334865;29;92103;-87
2023/04/06 00:28:15;;;;;;;;;;;6.80;92.20;7.20;99835.00;;;;333854;29;93863;-87
2023/04/06 00:28:28;;;;;;;;;;;6.90;92.30;7.30;99835.00;;;;333541;29;92159;-87
2023/04/06 00:28:39;;;;;;;;;;;6.80;92.00;7.20;99831.00;;;;334728;29;93471;-87
2023/04/06 00:28:52;;;;;;;;;;;6.80;91.90;7.30;99842.00;;;;333725;29;91958;-87
2023/04/06 00:29:04;;;;;;;;;;;6.80;91.90;7.30;99839.00;;;;335196;29;94464;-87
2023/04/06 00:29:16;;;;;;;;;;;6.80;91.70;7.30;99827.00;;;;337439;28;92056;-87
2023/04/06 00:29:28;;;;;;;;;;;6.80;91.60;7.30;99834.00;;;;336390;28;96152;-88
2023/04/06 00:29:40;;;;;;;;;;;6.80;91.70;7.30;99831.00;;;;336210;28;92548;-87
2023/04/06 00:29:51;;;;;;;;;;;6.80;91.70;7.30;99826.00;;;;335094;29;95919;-87
2023/04/06 00:30:04;;;;;;;;;;;6.80;91.70;7.30;99833.00;;;;337594;28;91924;-87
2023/04/06 00:30:16;;;;;;;;;;;6.80;91.70;7.20;99833.00;;;;336391;28;96620;-87
2023/04/06 00:30:28;;;;;;;;;;;6.80;91.70;7.20;99843.00;;;;331113;29;91993;-87
2023/04/06 00:30:40;;;;;;;;;;;6.80;91.90;7.20;99838.00;;;;335000;29;96519;-87
2023/04/06 00:30:54;;;;;;;;;;;6.80;92.00;7.20;99840.00;;;;337608;28;91819;-87
2023/04/06 00:31:06;;;;;;;;;;;6.80;92.10;7.20;99830.00;;;;335235;29;91998;-87
2023/04/06 00:31:18;;;;;;;;;;;6.80;92.10;7.30;99834.00;;;;334855;28;91496;-87
2023/04/06 00:31:30;;;;;;;;;;;6.80;92.00;7.20;99837.00;;;;337827;28;92748;-87
2023/04/06 00:31:42;;;;;;;;;;;6.80;91.80;7.20;99826.00;;;;336120;28;92107;-87
2023/04/06 00:31:54;;;;;;;;;;;6.80;91.90;7.20;99832.00;;;;337710;28;93529;-87
2023/04/06 00:32:06;;;;;;;;;;;6.80;92.00;7.20;99836.00;;;;336213;28;91993;-87
2023/04/06 00:32:17;;;;;;;;;;;6.70;91.80;7.30;99837.00;;;;336203;28;93597;-87
2023/04/06 00:32:29;;;;;;;;;;;6.80;91.70;7.30;99835.00;;;;337525;28;91871;-87
2023/04/06 00:32:41;;;;;;;;;;;6.70;91.50;7.20;99829.00;;;;338959;28;96136;-87
2023/04/06 00:32:53;;;;;;;;;;;6.70;91.70;7.20;99829.00;;;;334879;29;91096;-87
2023/04/06 00:33:05;;;;;;;;;;;6.70;92.00;7.20;99832.00;;;;336512;28;93654;-87
2023/04/06 00:33:17;;;;;;;;;;;6.80;92.00;7.20;99834.00;;;;337553;28;91287;-87
2023/04/06 00:33:29;;;;;;;;;;;6.70;91.80;7.20;99829.00;;;;335167;29;93189;-87
2023/04/06 00:33:41;;;;;;;;;;;6.70;92.00;7.20;99826.00;;;;337622;28;91840;-87
2023/04/06 00:33:52;;;;;;;;;;;6.80;92.10;7.10;99836.00;;;;335196;29;92061;-87
2023/04/06 00:34:05;;;;;;;;;;;6.70;92.00;7.10;99842.00;;;;336171;28;91926;-87
2023/04/06 00:34:17;;;;;;;;;;;6.70;92.00;7.10;99826.00;;;;336490;28;94821;-87
2023/04/06 00:34:29;;;;;;;;;;;6.70;92.30;7.00;99836.00;;;;337497;28;92088;-87
2023/04/06 00:34:40;;;;;;;;;;;6.70;92.40;7.00;99834.00;;;;339004;28;96791;-87
2023/04/06 00:34:52;;;;;;;;;;;6.70;92.40;7.00;99834.00;;;;338854;28;91154;-86
2023/04/06 00:35:04;;;;;;;;;;;6.70;92.60;7.00;99832.00;;;;335239;29;93522;-87
2023/04/06 00:35:16;;;;;;;;;;;6.70;92.60;7.00;99825.00;;;;334834;29;91295;-87
2023/04/06 00:35:28;;;;;;;;;;;6.70;92.70;7.00;99832.00;;;;335182;29;92439;-87
2023/04/06 00:35:40;;;;;;;;;;;6.70;92.60;7.10;99828.00;;;;335852;28;91801;-87
2023/04/06 00:35:52;;;;;;;;;;;6.60;92.40;7.10;99825.00;;;;336374;28;96211;-87
2023/04/06 00:36:05;;;;;;;;;;;6.70;92.30;7.10;99828.00;;;;336207;28;91911;-87
2023/04/06 00:36:17;;;;;;;;;;;6.70;92.20;7.10;99827.00;;;;333824;29;96489;-87
2023/04/06 00:36:29;;;;;;;;;;;6.70;92.30;7.10;99829.00;;;;336230;28;91897;-87
2023/04/06 00:36:41;;;;;;;;;;;6.70;92.30;7.10;99832.00;;;;337702;28;96112;-87
2023/04/06 00:36:53;;;;;;;;;;;6.70;92.20;7.10;99824.00;;;;336153;28;92046;-87
2023/04/06 00:37:05;;;;;;;;;;;6.70;92.10;7.10;99827.00;;;;333963;29;93170;-87
2023/04/06 00:37:17;;;;;;;;;;;6.70;92.10;7.20;99827.00;;;;338773;28;91334;-87
2023/04/06 00:37:28;;;;;;;;;;;6.60;91.90;7.20;99823.00;;;;337679;28;95392;-87
2023/04/06 00:37:40;;;;;;;;;;;6.70;91.80;7.20;99827.00;;;;337603;28;91852;-87
2023/04/06 00:37:52;;;;;;;;;;;6.70;92.00;7.10;99826.00;;;;336328;28;95650;-87
2023/04/06 00:38:04;;;;;;;;;;;6.60;92.20;7.10;99829.00;;;;337567;28;91880;-88
2023/04/06 00:38:16;;;;;;;;;;;6.60;92.10;7.20;99826.00;;;;340062;28;92740;-87
2023/04/06 00:38:27;;;;;;;;;;;6.70;92.10;7.20;99825.00;;;;337489;28;92404;-87
2023/04/06 00:38:39;;;;;;;;;;;6.60;92.00;7.30;99833.00;;;;334850;29;92847;-87
2023/04/06 00:38:51;;;;;;;;;;;6.70;92.20;7.20;99822.00;;;;338491;28;92045;-87
2023/04/06 00:39:03;;;;;;;;;;;6.60;92.20;7.20;99826.00;;;;337337;28;95114;-87
2023/04/06 00:39:15;;;;;;;;;;;6.70;92.30;7.10;99824.00;;;;334788;29;91177;-85
2023/04/06 00:39:29;;;;;;;;;;;6.70;92.50;7.10;99826.00;;;;338765;28;94161;-86
2023/04/06 00:39:40;;;;;;;;;;;6.60;92.50;7.10;99826.00;;;;337341;28;91141;-87
2023/04/06 00:39:52;;;;;;;;;;;6.60;92.50;7.10;99824.00;;;;337717;28;92506;-86
2023/04/06 00:40:05;;;;;;;;;;;6.60;92.50;7.10;99824.00;;;;338438;28;91174;-86
2023/04/06 00:40:16;;;;;;;;;;;6.60;92.50;7.00;99817.00;;;;337550;28;96245;-86
2023/04/06 00:40:28;;;;;;;;;;;6.60;92.60;7.00;99822.00;;;;335932;29;91263;-87
2023/04/06 00:40:40;;;;;;;;;;;6.60;92.70;7.00;99831.00;;;;337103;28;92348;-87
2023/04/06 00:40:52;;;;;;;;;;;6.60;92.70;7.10;99823.00;;;;337394;28;91922;-88
2023/04/06 00:41:04;;;;;;;;;;;6.60;92.70;7.10;99819.00;;;;337275;28;96604;-87
2023/04/06 00:41:17;;;;;;;;;;;6.60;92.80;7.00;99822.00;;;;337128;28;91433;-88
2023/04/06 00:41:29;;;;;;;;;;;6.50;92.80;7.00;99818.00;;;;336115;29;94494;-87
2023/04/06 00:41:45;;;;;;;;;;;6.60;92.80;7.00;99824.00;;;;334602;29;91085;-87
2023/04/06 00:41:57;;;;;;;;;;;6.60;92.60;7.10;99824.00;;;;335010;29;94980;-87
2023/04/06 00:42:13;;;;;;;;;;;6.60;92.30;7.10;99818.00;;;;333618;29;91982;-87
2023/04/06 00:42:25;;;;;;;;;;;6.50;92.10;7.20;99807.00;;;;335084;28;96139;-87
2023/04/06 00:42:37;;;;;;;;;;;6.60;92.40;7.20;99818.00;;;;336341;28;91940;-86
2023/04/06 00:42:49;;;;;;;;;;;6.60;92.10;7.30;99822.00;;;;336418;28;93123;-87
2023/04/06 00:43:01;;;;;;;;;;;6.60;92.10;7.40;99810.00;;;;334995;29;91049;-87
2023/04/06 00:43:13;;;;;;;;;;;6.60;92.20;7.40;99810.00;;;;335212;29;93579;-87
2023/04/06 00:43:25;;;;;;;;;;;6.60;92.30;7.20;99806.00;;;;336081;28;91701;-86
2023/04/06 00:43:37;;;;;;;;;;;6.60;92.40;7.20;99817.00;;;;334034;29;94965;-87
2023/04/06 00:43:49;;;;;;;;;;;6.60;92.50;7.10;99820.00;;;;335000;29;91989;-87
2023/04/06 00:44:00;;;;;;;;;;;6.60;92.60;7.10;99807.00;;;;336369;28;96210;-86
2023/04/06 00:44:12;;;;;;;;;;;6.60;92.60;7.20;99811.00;;;;336087;28;91873;-87
2023/04/06 00:44:24;;;;;;;;;;;6.60;92.40;7.20;99813.00;;;;335008;29;96324;-86
2023/04/06 00:44:36;;;;;;;;;;;6.60;92.30;7.20;99818.00;;;;337415;28;92117;-87
2023/04/06 00:44:48;;;;;;;;;;;6.60;92.20;7.20;99819.00;;;;336462;28;92503;-87
2023/04/06 00:45:00;;;;;;;;;;;6.60;92.20;7.20;99805.00;;;;334974;29;91935;-87
2023/04/06 00:45:12;;;;;;;;;;;6.60;92.20;7.10;99812.00;;;;337768;28;94016;-87
2023/04/06 00:45:24;;;;;;;;;;;6.60;92.20;7.20;99812.00;;;;338731;28;91286;-87
2023/04/06 00:45:36;;;;;;;;;;;6.60;92.10;7.20;99809.00;;;;336601;28;91324;-87
2023/04/06 00:45:48;;;;;;;;;;;6.60;92.10;7.10;99807.00;;;;334974;29;91924;-87
2023/04/06 00:45:59;;;;;;;;;;;6.60;92.10;7.10;99818.00;;;;338834;28;95490;-87
2023/04/06 00:46:11;;;;;;;;;;;6.60;92.30;7.10;99809.00;;;;336359;28;91823;-87
2023/04/06 00:46:23;;;;;;;;;;;6.60;92.40;7.20;99805.00;;;;336393;28;96379;-87
2023/04/06 00:46:36;;;;;;;;;;;6.60;92.20;7.20;99813.00;;;;337534;28;92157;-87
2023/04/06 00:46:48;;;;;;;;;;;6.60;92.20;7.10;99810.00;;;;336408;28;95421;-87
2023/04/06 00:46:59;;;;;;;;;;;6.60;92.50;7.10;99813.00;;;;335013;29;91078;-87
2023/04/06 00:47:11;;;;;;;;;;;6.60;92.60;7.10;99810.00;;;;336317;28;93596;-86
2023/04/06 00:47:25;;;;;;;;;;;6.60;92.40;7.10;99805.00;;;;335743;28;91375;-86
2023/04/06 00:47:37;;;;;;;;;;;6.60;92.60;7.10;99808.00;;;;333920;29;94765;-87
2023/04/06 00:47:49;;;;;;;;;;;6.60;92.60;7.10;99804.00;;;;334982;29;92044;-87
2023/04/06 00:48:01;;;;;;;;;;;6.60;92.60;7.10;99822.00;;;;333808;29;92579;-87
2023/04/06 00:48:13;;;;;;;;;;;6.60;92.50;7.20;99805.00;;;;336208;28;92000;-87
2023/04/06 00:48:25;;;;;;;;;;;6.60;92.40;7.20;99813.00;;;;337680;28;94660;-87
2023/04/06 00:48:37;;;;;;;;;;;6.60;92.30;7.20;99819.00;;;;333406;29;92161;-87
2023/04/06 00:48:48;;;;;;;;;;;6.60;92.30;7.30;99811.00;;;;333843;29;96407;-87
2023/04/06 00:49:00;;;;;;;;;;;6.60;92.20;7.40;99808.00;;;;338794;28;91872;-87
2023/04/06 00:49:12;;;;;;;;;;;6.60;92.40;7.40;99805.00;;;;335200;29;93202;-87
2023/04/06 00:49:24;;;;;;;;;;;6.60;92.40;7.40;99812.00;;;;334892;29;90431;-87
2023/04/06 00:49:36;;;;;;;;;;;6.60;92.50;7.30;99819.00;;;;336400;28;96047;-87
2023/04/06 00:49:48;;;;;;;;;;;6.60;92.60;7.20;99808.00;;;;337518;28;92063;-87
2023/04/06 00:49:59;;;;;;;;;;;6.60;92.80;7.10;99805.00;;;;338929;28;95805;-87
2023/04/06 00:50:11;;;;;;;;;;;6.60;92.90;7.10;99809.00;;;;337507;28;91914;-87
2023/04/06 00:50:23;;;;;;;;;;;6.60;93.00;7.10;99818.00;;;;337739;28;94451;-87
2023/04/06 00:50:35;;;;;;;;;;;6.60;93.10;7.10;99811.00;;;;337099;28;92347;-87
2023/04/06 00:50:47;;;;;;;;;;;6.60;93.00;7.20;99813.00;;;;336399;28;96480;-87
2023/04/06 00:50:59;;;;;;;;;;;6.60;93.00;7.30;99804.00;;;;336009;28;92033;-87
2023/04/06 00:51:10;;;;;;;;;;;6.60;92.90;7.40;99809.00;;;;337603;28;95573;-87
2023/04/06 00:51:22;;;;;;;;;;;6.60;92.80;7.40;99804.00;;;;337414;28;90451;-86
2023/04/06 00:51:34;;;;;;;;;;;6.60;92.80;7.40;99802.00;;;;339125;28;93944;-86
2023/04/06 00:51:46;;;;;;;;;;;6.60;92.80;7.30;99806.00;;;;338894;28;91895;-87
2023/04/06 00:51:58;;;;;;;;;;;6.60;92.90;7.20;99798.00;;;;337653;28;96342;-87
2023/04/06 00:52:10;;;;;;;;;;;6.70;93.10;7.10;99806.00;;;;338908;28;91981;-87
2023/04/06 00:52:22;;;;;;;;;;;6.60;93.10;7.10;99800.00;;;;339026;28;94794;-86
2023/04/06 00:52:34;;;;;;;;;;;6.60;93.10;7.10;99798.00;;;;334706;29;92053;-87
2023/04/06 00:52:46;;;;;;;;;;;6.60;93.00;7.10;99808.00;;;;338931;28;95339;-87
2023/04/06 00:53:00;;;;;;;;;;;6.60;92.90;7.10;99798.00;;;;340291;28;92050;-87
2023/04/06 00:53:12;;;;;;;;;;;6.60;92.80;7.20;99807.00;;;;335152;29;93946;-87
2023/04/06 00:53:24;;;;;;;;;;;6.60;92.70;7.20;99810.00;;;;338758;28;91290;-87
2023/04/06 00:53:36;;;;;;;;;;;6.60;92.60;7.20;99800.00;;;;339000;28;94925;-87
2023/04/06 00:53:48;;;;;;;;;;;6.60;92.50;7.20;99800.00;;;;338745;28;91960;-87
2023/04/06 00:53:59;;;;;;;;;;;6.60;92.50;7.20;99802.00;;;;341474;28;93504;-87
2023/04/06 00:54:11;;;;;;;;;;;6.60;92.50;7.10;99806.00;;;;336355;28;91052;-87
2023/04/06 00:54:23;;;;;;;;;;;6.60;92.60;7.10;99800.00;;;;336435;28;93199;-86
2023/04/06 00:54:35;;;;;;;;;;;6.60;92.80;7.20;99801.00;;;;338784;28;92083;-86
2023/04/06 00:54:47;;;;;;;;;;;6.60;92.80;7.20;99804.00;;;;337631;28;95984;-87
2023/04/06 00:54:59;;;;;;;;;;;6.60;92.70;7.20;99803.00;;;;338935;28;91020;-87
2023/04/06 00:55:11;;;;;;;;;;;6.60;92.70;7.20;99804.00;;;;340364;28;95533;-86
2023/04/06 00:55:22;;;;;;;;;;;6.60;92.70;7.30;99808.00;;;;338773;28;91283;-87
2023/04/06 00:55:35;;;;;;;;;;;6.60;92.90;7.20;99799.00;;;;338967;28;96149;-86
2023/04/06 00:55:47;;;;;;;;;;;6.60;92.80;7.20;99800.00;;;;340124;28;92095;-87
2023/04/06 00:55:59;;;;;;;;;;;6.60;93.00;7.10;99809.00;;;;338918;28;96074;-87
2023/04/06 00:56:11;;;;;;;;;;;6.60;92.80;7.10;99797.00;;;;333625;29;92020;-87
2023/04/06 00:56:23;;;;;;;;;;;6.60;92.80;7.10;99796.00;;;;339025;28;93434;-87
2023/04/06 00:56:35;;;;;;;;;;;6.60;92.90;7.10;99799.00;;;;341185;28;92690;-86
2023/04/06 00:56:47;;;;;;;;;;;6.60;93.30;7.10;99813.00;;;;337737;28;95726;-87
2023/04/06 00:56:59;;;;;;;;;;;6.60;93.20;7.10;99802.00;;;;338720;28;92010;-87
2023/04/06 00:57:12;;;;;;;;;;;6.60;93.10;7.00;99807.00;;;;340417;28;95355;-86
2023/04/06 00:57:23;;;;;;;;;;;6.60;93.40;7.00;99804.00;;;;337437;28;91287;-87
2023/04/06 00:57:35;;;;;;;;;;;6.60;93.60;6.90;99806.00;;;;340437;28;94348;-87
2023/04/06 00:57:47;;;;;;;;;;;6.60;93.50;7.00;99807.00;;;;337587;28;91057;-87
2023/04/06 00:58:00;;;;;;;;;;;6.60;93.50;6.90;99796.00;;;;338901;28;95093;-86
2023/04/06 00:58:12;;;;;;;;;;;6.60;93.50;6.90;99804.00;;;;340104;28;91905;-87
2023/04/06 00:58:24;;;;;;;;;;;6.60;93.40;6.80;99804.00;;;;339010;28;93869;-87
2023/04/06 00:58:38;;;;;;;;;;;6.50;93.40;6.80;99801.00;;;;336072;28;91182;-87
2023/04/06 00:58:50;;;;;;;;;;;6.50;93.60;6.80;99803.00;;;;339021;28;96325;-87
2023/04/06 00:59:02;;;;;;;;;;;6.50;93.70;6.70;99795.00;;;;340197;28;92120;-87
2023/04/06 00:59:13;;;;;;;;;;;6.50;93.70;6.70;99802.00;;;;336444;28;93513;-87
2023/04/06 00:59:26;;;;;;;;;;;6.50;93.70;6.70;99796.00;;;;338740;28;90324;-87
2023/04/06 00:59:38;;;;;;;;;;;6.50;93.80;6.60;99803.00;;;;337817;28;92673;-86
2023/04/06 00:59:51;;;;;;;;;;;6.50;93.80;6.80;99807.00;;;;340213;28;91185;-87
2023/04/06 01:00:03;;;;;;;;;;;6.50;93.80;7.00;99797.00;;;;339009;28;94201;-87
2023/04/06 01:00:15;;;;;;;;;;;6.50;93.60;7.00;99800.00;;;;338757;28;91215;-88
2023/04/06 01:00:27;;;;;;;;;;;6.40;93.50;7.10;99789.00;;;;337481;28;93435;-87
2023/04/06 01:00:39;;;;;;;;;;;6.50;93.50;7.00;99801.00;;;;338642;28;91306;-86
2023/04/06 01:00:51;;;;;;;;;;;6.50;93.40;7.00;99796.00;;;;340448;28;93168;-87
2023/04/06 01:01:03;;;;;;;;;;;6.50;93.30;7.00;99798.00;;;;336149;28;92071;-87